Terminal Aerodrome Forecast
Issued by NWS Wakefield, VA

Home | Current Version | Previous Version | Text Only | Print | Product List | Glossary On
Versions: 1 2 3 4 5 6 7 8 9 10 11 12 13 14 15 16 17 18 19 20
127
FTUS41 KAKQ 020646 AAA
TAFECG
TAF AMD
KECG 020646Z 0207/0306 18004KT P6SM OVC014
     FM020800 20005KT P6SM OVC007
     FM021500 23009KT P6SM BKN012
     FM021700 23011KT P6SM SCT050 BKN200=

USA.gov is the U.S. government's official web portal to all federal, state and local government web resources and services.